createdAt,value
2023-01-23T00:00:19.861Z,1028.46
2023-01-23T00:01:19.578Z,1028.47
2023-01-23T00:02:19.635Z,1028.44
2023-01-23T00:03:19.581Z,1028.48
2023-01-23T00:04:19.656Z,1028.41
2023-01-23T00:05:20.985Z,1028.43
2023-01-23T00:06:19.566Z,1028.51
2023-01-23T00:07:19.508Z,1028.52
2023-01-23T00:08:19.623Z,1028.45
2023-01-23T00:09:19.516Z,1028.46
2023-01-23T00:10:19.764Z,1028.49
2023-01-23T00:11:19.475Z,1028.48
2023-01-23T00:12:19.463Z,1028.47
2023-01-23T00:13:19.531Z,1028.41
2023-01-23T00:14:19.413Z,1028.42
2023-01-23T00:15:19.434Z,1028.40
2023-01-23T00:16:19.395Z,1028.40
2023-01-23T00:17:19.475Z,1028.45
2023-01-23T00:18:19.420Z,1028.41
2023-01-23T00:19:19.343Z,1028.41
2023-01-23T00:20:19.646Z,1028.40
2023-01-23T00:21:19.356Z,1028.42
2023-01-23T00:22:19.329Z,1028.48
2023-01-23T00:23:19.295Z,1028.47
2023-01-23T00:24:19.294Z,1028.45
2023-01-23T00:25:19.285Z,1028.48
2023-01-23T00:26:19.281Z,1028.45
2023-01-23T00:27:19.302Z,1028.45
2023-01-23T00:28:19.422Z,1028.46
2023-01-23T00:29:19.258Z,1028.45
2023-01-23T00:30:19.541Z,1028.48
2023-01-23T00:31:19.279Z,1028.42
2023-01-23T00:32:19.223Z,1028.44
2023-01-23T00:33:19.248Z,1028.43
2023-01-23T00:34:19.176Z,1028.37
2023-01-23T00:35:19.188Z,1028.41
2023-01-23T00:36:19.169Z,1028.40
2023-01-23T00:37:19.139Z,1028.43
2023-01-23T00:38:19.135Z,1028.40
2023-01-23T00:39:19.156Z,1028.35
2023-01-23T00:40:19.429Z,1028.37
2023-01-23T00:41:19.554Z,1028.42
2023-01-23T00:42:19.069Z,1028.34
2023-01-23T00:43:19.130Z,1028.36
2023-01-23T00:44:19.111Z,1028.33
2023-01-23T00:45:19.102Z,1028.36
2023-01-23T00:46:19.050Z,1028.40
2023-01-23T00:47:19.031Z,1028.31
2023-01-23T00:48:19.012Z,1028.39
2023-01-23T00:49:19.007Z,1028.32
2023-01-23T00:50:19.208Z,1028.29
2023-01-23T00:51:19.041Z,1028.28
2023-01-23T00:52:18.995Z,1028.34
2023-01-23T00:53:18.940Z,1028.29
2023-01-23T00:54:19.000Z,1028.28
2023-01-23T00:55:19.114Z,1028.26
2023-01-23T00:56:19.580Z,1028.31
2023-01-23T00:57:19.036Z,1028.31
2023-01-23T00:58:19.117Z,1028.34
2023-01-23T00:59:18.879Z,1028.41
2023-01-23T01:00:19.214Z,1028.41
2023-01-23T01:01:18.893Z,1028.40
2023-01-23T01:02:18.829Z,1028.44
2023-01-23T01:03:18.873Z,1028.50
2023-01-23T01:04:18.800Z,1028.50
2023-01-23T01:05:18.802Z,1028.52
2023-01-23T01:06:18.871Z,1028.56
2023-01-23T01:07:18.910Z,1028.53
2023-01-23T01:08:20.273Z,1028.57
2023-01-23T01:09:18.782Z,1028.59
2023-01-23T01:10:18.944Z,1028.60
2023-01-23T01:11:18.713Z,1028.58
2023-01-23T01:12:18.691Z,1028.58
2023-01-23T01:13:18.699Z,1028.61
2023-01-23T01:14:18.643Z,1028.69
2023-01-23T01:15:18.639Z,1028.69
2023-01-23T01:16:18.697Z,1028.71
2023-01-23T01:17:18.644Z,1028.73
2023-01-23T01:18:18.611Z,1028.73
2023-01-23T01:19:18.613Z,1028.76
2023-01-23T01:20:18.868Z,1028.79
2023-01-23T01:21:18.712Z,1028.84
2023-01-23T01:22:18.582Z,1028.83
2023-01-23T01:23:18.851Z,1028.79
2023-01-23T01:24:18.602Z,1028.79
2023-01-23T01:25:18.527Z,1028.86
2023-01-23T01:26:18.531Z,1028.85
2023-01-23T01:27:18.547Z,1028.86
2023-01-23T01:28:19.610Z,1028.81
2023-01-23T01:29:18.536Z,1028.82
2023-01-23T01:30:18.915Z,1028.81
2023-01-23T01:31:18.538Z,1028.80
2023-01-23T01:32:18.440Z,1028.83
2023-01-23T01:33:18.426Z,1028.81
2023-01-23T01:34:18.496Z,1028.81
2023-01-23T01:35:18.448Z,1028.79
2023-01-23T01:36:18.370Z,1028.85
2023-01-23T01:37:18.433Z,1028.83
2023-01-23T01:38:18.791Z,1028.85
2023-01-23T01:39:18.324Z,1028.91
2023-01-23T01:40:18.697Z,1028.88
2023-01-23T01:41:18.322Z,1028.89
2023-01-23T01:42:18.365Z,1028.91
2023-01-23T01:43:18.442Z,1028.97
2023-01-23T01:44:18.292Z,1028.95
2023-01-23T01:45:18.257Z,1028.96
2023-01-23T01:46:18.353Z,1028.98
2023-01-23T01:47:18.262Z,1028.95
2023-01-23T01:48:18.202Z,1029.00
2023-01-23T01:49:18.206Z,1028.97
2023-01-23T01:50:18.507Z,1029.01
2023-01-23T01:51:18.269Z,1029.04
2023-01-23T01:52:18.202Z,1029.01
2023-01-23T01:53:18.931Z,1029.01
2023-01-23T01:54:18.146Z,1029.01
2023-01-23T01:55:18.136Z,1028.97
2023-01-23T01:56:18.166Z,1029.03
2023-01-23T01:57:18.174Z,1029.04
2023-01-23T01:58:18.154Z,1029.07
2023-01-23T01:59:18.092Z,1029.02
2023-01-23T02:00:18.533Z,1029.08
2023-01-23T02:01:18.093Z,1029.10
2023-01-23T02:02:18.240Z,1029.08
2023-01-23T02:03:18.046Z,1029.14
2023-01-23T02:04:18.036Z,1029.10
2023-01-23T02:05:18.021Z,1029.09
2023-01-23T02:06:18.006Z,1029.10
2023-01-23T02:07:17.998Z,1029.10
2023-01-23T02:08:17.987Z,1029.08
2023-01-23T02:09:17.945Z,1029.09
2023-01-23T02:10:18.330Z,1029.11
2023-01-23T02:11:18.185Z,1029.02
2023-01-23T02:12:17.924Z,1028.96
2023-01-23T02:13:17.897Z,1029.00
2023-01-23T02:14:17.957Z,1028.97
2023-01-23T02:15:17.865Z,1028.99
2023-01-23T02:16:17.962Z,1028.95
2023-01-23T02:17:17.874Z,1029.05
2023-01-23T02:18:17.834Z,1029.02
2023-01-23T02:19:17.838Z,1029.07
2023-01-23T02:20:18.041Z,1029.11
2023-01-23T02:21:17.865Z,1029.15
2023-01-23T02:22:17.789Z,1029.13
2023-01-23T02:23:18.205Z,1029.09
2023-01-23T02:24:17.988Z,1029.13
2023-01-23T02:25:17.749Z,1029.16
2023-01-23T02:26:17.878Z,1029.19
2023-01-23T02:27:17.757Z,1029.21
2023-01-23T02:28:17.768Z,1029.18
2023-01-23T02:29:17.725Z,1029.15
2023-01-23T02:30:17.972Z,1029.19
2023-01-23T02:31:17.785Z,1029.18
2023-01-23T02:32:17.690Z,1029.20
2023-01-23T02:33:17.671Z,1029.23
2023-01-23T02:34:18.488Z,1029.24
2023-01-23T02:35:17.606Z,1029.20
2023-01-23T02:36:18.795Z,1029.20
2023-01-23T02:37:17.614Z,1029.23
2023-01-23T02:38:18.578Z,1029.22
2023-01-23T02:39:17.724Z,1029.24
2023-01-23T02:40:17.905Z,1029.24
2023-01-23T02:41:17.552Z,1029.21
2023-01-23T02:42:17.568Z,1029.21
2023-01-23T02:43:17.629Z,1029.19
2023-01-23T02:44:17.525Z,1029.23
2023-01-23T02:45:18.162Z,1029.21
2023-01-23T02:46:17.489Z,1029.24
2023-01-23T02:47:17.481Z,1029.24
2023-01-23T02:48:17.519Z,1029.24
2023-01-23T02:49:17.701Z,1029.23
2023-01-23T02:50:17.870Z,1029.28
2023-01-23T02:51:18.064Z,1029.30
2023-01-23T02:52:17.423Z,1029.29
2023-01-23T02:53:18.619Z,1029.30
2023-01-23T02:54:17.419Z,1029.31
2023-01-23T02:55:17.376Z,1029.25
2023-01-23T02:56:17.347Z,1029.30
2023-01-23T02:57:17.480Z,1029.31
2023-01-23T02:58:17.340Z,1029.32
2023-01-23T02:59:17.359Z,1029.34
2023-01-23T03:00:17.534Z,1029.34
2023-01-23T03:01:17.399Z,1029.38
2023-01-23T03:02:17.345Z,1029.38
2023-01-23T03:03:18.259Z,1029.38
2023-01-23T03:04:17.261Z,1029.41
2023-01-23T03:05:17.219Z,1029.38
2023-01-23T03:06:17.260Z,1029.37
2023-01-23T03:07:17.221Z,1029.39
2023-01-23T03:08:17.402Z,1029.39
2023-01-23T03:09:17.191Z,1029.38
2023-01-23T03:10:17.381Z,1029.43
2023-01-23T03:11:17.139Z,1029.43
2023-01-23T03:12:17.220Z,1029.40
2023-01-23T03:13:17.123Z,1029.41
2023-01-23T03:14:17.144Z,1029.40
2023-01-23T03:15:17.158Z,1029.40
2023-01-23T03:16:18.051Z,1029.41
2023-01-23T03:17:17.211Z,1029.40
2023-01-23T03:18:17.091Z,1029.40
2023-01-23T03:19:17.052Z,1029.44
2023-01-23T03:20:17.110Z,1029.48
2023-01-23T03:21:17.023Z,1029.46
2023-01-23T03:22:17.011Z,1029.48
2023-01-23T03:23:17.072Z,1029.51
2023-01-23T03:24:17.004Z,1029.48
2023-01-23T03:25:16.995Z,1029.53
2023-01-23T03:26:16.978Z,1029.47
2023-01-23T03:27:16.991Z,1029.48
2023-01-23T03:28:16.972Z,1029.49
2023-01-23T03:29:17.103Z,1029.54
2023-01-23T03:30:17.195Z,1029.48
2023-01-23T03:31:16.939Z,1029.49
2023-01-23T03:32:17.807Z,1029.55
2023-01-23T03:33:17.076Z,1029.60
2023-01-23T03:34:16.873Z,1029.61
2023-01-23T03:35:16.841Z,1029.59
2023-01-23T03:36:16.941Z,1029.55
2023-01-23T03:37:16.955Z,1029.45
2023-01-23T03:38:16.802Z,1029.54
2023-01-23T03:39:16.785Z,1029.52
2023-01-23T03:40:16.846Z,1029.57
2023-01-23T03:41:17.764Z,1029.55
2023-01-23T03:42:16.793Z,1029.53
2023-01-23T03:43:16.771Z,1029.52
2023-01-23T03:44:18.183Z,1029.54
2023-01-23T03:45:16.757Z,1029.53
2023-01-23T03:46:16.711Z,1029.55
2023-01-23T03:47:16.758Z,1029.47
2023-01-23T03:48:16.709Z,1029.47
2023-01-23T03:49:16.725Z,1029.47
2023-01-23T03:50:16.678Z,1029.43
2023-01-23T03:51:16.726Z,1029.39
2023-01-23T03:52:16.644Z,1029.43
2023-01-23T03:53:17.089Z,1029.46
2023-01-23T03:54:16.614Z,1029.47
2023-01-23T03:55:16.783Z,1029.44
2023-01-23T03:56:16.588Z,1029.45
2023-01-23T03:57:17.685Z,1029.48
2023-01-23T03:58:16.557Z,1029.52
2023-01-23T03:59:16.857Z,1029.53
2023-01-23T04:00:17.665Z,1029.55
2023-01-23T04:01:16.635Z,1029.51
2023-01-23T04:02:16.551Z,1029.55
2023-01-23T04:03:16.535Z,1029.50
2023-01-23T04:04:16.677Z,1029.53
2023-01-23T04:05:17.416Z,1029.50
2023-01-23T04:06:16.468Z,1029.52
2023-01-23T04:07:16.473Z,1029.51
2023-01-23T04:08:16.475Z,1029.55
2023-01-23T04:09:16.466Z,1029.56
2023-01-23T04:10:17.568Z,1029.55
2023-01-23T04:11:17.838Z,1029.51
2023-01-23T04:12:16.578Z,1029.55
2023-01-23T04:13:16.419Z,1029.50
2023-01-23T04:14:16.360Z,1029.51
2023-01-23T04:15:16.479Z,1029.48
2023-01-23T04:16:16.359Z,1029.51
2023-01-23T04:17:16.348Z,1029.53
2023-01-23T04:18:17.209Z,1029.52
2023-01-23T04:19:16.343Z,1029.47
2023-01-23T04:20:16.506Z,1029.53
2023-01-23T04:21:16.308Z,1029.55
2023-01-23T04:22:16.248Z,1029.67
2023-01-23T04:23:16.236Z,1029.58
2023-01-23T04:24:16.349Z,1029.60
2023-01-23T04:25:16.215Z,1029.67
2023-01-23T04:26:16.209Z,1029.64
2023-01-23T04:27:16.876Z,1029.56
2023-01-23T04:28:16.333Z,1029.63
2023-01-23T04:29:16.208Z,1029.62
2023-01-23T04:30:16.189Z,1029.68
2023-01-23T04:31:16.287Z,1029.61
2023-01-23T04:32:17.577Z,1029.61
2023-01-23T04:33:16.401Z,1029.65
2023-01-23T04:34:16.161Z,1029.60
2023-01-23T04:35:16.223Z,1029.64
2023-01-23T04:36:16.088Z,1029.61
2023-01-23T04:37:16.355Z,1029.66
2023-01-23T04:38:16.095Z,1029.71
2023-01-23T04:39:16.103Z,1029.66
2023-01-23T04:40:16.101Z,1029.65
2023-01-23T04:41:16.134Z,1029.69
2023-01-23T04:42:16.507Z,1029.69
2023-01-23T04:43:16.543Z,1029.69
2023-01-23T04:44:16.123Z,1029.65
2023-01-23T04:45:16.025Z,1029.66
2023-01-23T04:46:16.070Z,1029.62
2023-01-23T04:47:15.959Z,1029.67
2023-01-23T04:48:15.910Z,1029.66
2023-01-23T04:49:15.927Z,1029.69
2023-01-23T04:50:16.120Z,1029.71
2023-01-23T04:51:15.941Z,1029.71
2023-01-23T04:52:16.462Z,1029.78
2023-01-23T04:53:15.863Z,1029.78
2023-01-23T04:54:15.840Z,1029.79
2023-01-23T04:55:15.895Z,1029.80
2023-01-23T04:56:15.821Z,1029.81
2023-01-23T04:57:15.823Z,1029.79
2023-01-23T04:58:16.769Z,1029.80
2023-01-23T04:59:15.984Z,1029.77
2023-01-23T05:00:15.889Z,1029.78
2023-01-23T05:01:15.823Z,1029.78
2023-01-23T05:02:16.589Z,1029.72
2023-01-23T05:03:15.835Z,1029.69
2023-01-23T05:04:15.786Z,1029.73
2023-01-23T05:05:15.796Z,1029.73
2023-01-23T05:06:15.720Z,1029.71
2023-01-23T05:07:15.704Z,1029.71
2023-01-23T05:08:15.671Z,1029.76
2023-01-23T05:09:16.288Z,1029.80
2023-01-23T05:10:15.985Z,1029.76
2023-01-23T05:11:16.631Z,1029.80
2023-01-23T05:12:15.633Z,1029.82
2023-01-23T05:13:15.630Z,1029.88
2023-01-23T05:14:15.588Z,1029.85
2023-01-23T05:15:15.586Z,1029.89
2023-01-23T05:16:16.531Z,1029.84
2023-01-23T05:17:15.825Z,1029.86
2023-01-23T05:18:15.626Z,1029.88
2023-01-23T05:19:15.572Z,1029.83
2023-01-23T05:20:16.375Z,1029.83
2023-01-23T05:21:15.665Z,1029.84
2023-01-23T05:22:15.523Z,1029.84
2023-01-23T05:23:15.578Z,1029.84
2023-01-23T05:24:15.472Z,1029.82
2023-01-23T05:25:16.459Z,1029.84
2023-01-23T05:26:15.506Z,1029.83
2023-01-23T05:27:15.578Z,1029.82
2023-01-23T05:28:16.857Z,1029.84
2023-01-23T05:29:15.420Z,1029.84
2023-01-23T05:30:15.452Z,1029.84
2023-01-23T05:31:15.492Z,1029.84
2023-01-23T05:32:15.408Z,1029.85
2023-01-23T05:33:15.348Z,1029.86
2023-01-23T05:34:15.365Z,1029.84
2023-01-23T05:35:15.403Z,1029.88
2023-01-23T05:36:18.370Z,1029.88
2023-01-23T05:37:15.409Z,1029.92
2023-01-23T05:38:15.304Z,1029.92
2023-01-23T05:39:15.416Z,1029.89
2023-01-23T05:40:16.770Z,1029.93
2023-01-23T05:41:15.258Z,1029.97
2023-01-23T05:42:15.896Z,1029.96
2023-01-23T05:43:15.379Z,1029.97
2023-01-23T05:44:16.106Z,1029.92
2023-01-23T05:45:15.391Z,1029.95
2023-01-23T05:46:15.219Z,1029.94
2023-01-23T05:47:15.380Z,1029.89
2023-01-23T05:48:16.249Z,1029.92
2023-01-23T05:49:15.283Z,1029.96
2023-01-23T05:50:15.972Z,1029.98
2023-01-23T05:51:15.225Z,1029.97
2023-01-23T05:52:15.123Z,1029.99
2023-01-23T05:53:15.128Z,1029.99
2023-01-23T05:54:15.289Z,1030.01
2023-01-23T05:55:15.259Z,1030.04
2023-01-23T05:56:15.770Z,1030.07
2023-01-23T05:57:16.006Z,1030.09
2023-01-23T05:58:16.199Z,1030.16
2023-01-23T05:59:15.971Z,1030.16
2023-01-23T06:00:15.164Z,1030.10
2023-01-23T06:01:15.030Z,1030.20
2023-01-23T06:02:15.074Z,1030.18
2023-01-23T06:03:15.082Z,1030.17
2023-01-23T06:04:15.059Z,1030.14
2023-01-23T06:05:15.029Z,1030.15
2023-01-23T06:06:15.509Z,1030.16
2023-01-23T06:07:15.157Z,1030.16
2023-01-23T06:08:14.908Z,1030.16
2023-01-23T06:09:14.930Z,1030.18
2023-01-23T06:10:14.899Z,1030.25
2023-01-23T06:11:16.088Z,1030.29
2023-01-23T06:12:15.141Z,1030.28
2023-01-23T06:13:14.861Z,1030.33
2023-01-23T06:14:14.850Z,1030.35
2023-01-23T06:15:15.149Z,1030.32
2023-01-23T06:16:14.878Z,1030.39
2023-01-23T06:17:16.021Z,1030.42
2023-01-23T06:18:15.229Z,1030.38
2023-01-23T06:19:14.792Z,1030.41
2023-01-23T06:20:14.741Z,1030.40
2023-01-23T06:21:14.820Z,1030.41
2023-01-23T06:22:14.771Z,1030.43
2023-01-23T06:23:14.990Z,1030.50
2023-01-23T06:24:14.997Z,1030.47
2023-01-23T06:25:15.756Z,1030.41
2023-01-23T06:26:14.722Z,1030.39
2023-01-23T06:27:14.720Z,1030.41
2023-01-23T06:28:14.841Z,1030.41
2023-01-23T06:29:15.706Z,1030.40
2023-01-23T06:30:14.707Z,1030.36
2023-01-23T06:31:14.739Z,1030.41
2023-01-23T06:32:14.637Z,1030.38
2023-01-23T06:33:14.593Z,1030.43
2023-01-23T06:34:14.611Z,1030.41
2023-01-23T06:35:14.705Z,1030.45
2023-01-23T06:36:14.660Z,1030.47
2023-01-23T06:37:14.552Z,1030.49
2023-01-23T06:38:14.832Z,1030.49
2023-01-23T06:39:14.566Z,1030.45
2023-01-23T06:40:15.123Z,1030.46
2023-01-23T06:41:14.557Z,1030.47
2023-01-23T06:42:14.493Z,1030.49
2023-01-23T06:43:14.707Z,1030.53
2023-01-23T06:44:14.733Z,1030.52
2023-01-23T06:45:14.476Z,1030.58
2023-01-23T06:46:14.484Z,1030.57
2023-01-23T06:47:15.179Z,1030.61
2023-01-23T06:48:14.515Z,1030.63
2023-01-23T06:49:14.528Z,1030.62
2023-01-23T06:50:14.374Z,1030.71
2023-01-23T06:51:14.482Z,1030.73
2023-01-23T06:52:14.382Z,1030.72
2023-01-23T06:53:14.402Z,1030.74
2023-01-23T06:54:14.323Z,1030.78
2023-01-23T06:55:14.748Z,1030.77
2023-01-23T06:56:14.344Z,1030.74
2023-01-23T06:57:14.747Z,1030.79
2023-01-23T06:58:15.129Z,1030.79
2023-01-23T06:59:14.247Z,1030.84
2023-01-23T07:00:14.257Z,1030.84
2023-01-23T07:01:15.219Z,1030.89
2023-01-23T07:02:14.353Z,1030.89
2023-01-23T07:03:15.339Z,1030.90
2023-01-23T07:04:15.084Z,1030.94
2023-01-23T07:05:15.009Z,1030.94
2023-01-23T07:06:15.405Z,1030.96
2023-01-23T07:07:15.313Z,1030.95
2023-01-23T07:08:14.207Z,1030.98
2023-01-23T07:09:14.188Z,1031.02
2023-01-23T07:10:14.145Z,1030.98
2023-01-23T07:11:14.243Z,1030.98
2023-01-23T07:12:14.159Z,1031.01
2023-01-23T07:13:14.197Z,1031.03
2023-01-23T07:14:14.216Z,1031.05
2023-01-23T07:15:14.076Z,1031.10
2023-01-23T07:16:14.108Z,1031.13
2023-01-23T07:17:14.034Z,1031.13
2023-01-23T07:18:14.205Z,1031.12
2023-01-23T07:19:14.259Z,1031.12
2023-01-23T07:20:14.221Z,1031.22
2023-01-23T07:21:13.999Z,1031.20
2023-01-23T07:22:14.157Z,1031.24
2023-01-23T07:23:14.009Z,1031.24
2023-01-23T07:24:13.939Z,1031.28
2023-01-23T07:25:13.932Z,1031.26
2023-01-23T07:26:14.051Z,1031.27
2023-01-23T07:27:13.924Z,1031.29
2023-01-23T07:28:13.953Z,1031.31
2023-01-23T07:29:14.745Z,1031.29
2023-01-23T07:30:13.917Z,1031.34
2023-01-23T07:31:13.923Z,1031.36
2023-01-23T07:32:14.178Z,1031.37
2023-01-23T07:33:13.857Z,1031.38
2023-01-23T07:34:13.838Z,1031.35
2023-01-23T07:35:13.875Z,1031.39
2023-01-23T07:36:13.799Z,1031.38
2023-01-23T07:37:14.018Z,1031.40
2023-01-23T07:38:13.791Z,1031.39
2023-01-23T07:39:13.819Z,1031.41
2023-01-23T07:40:14.711Z,1031.43
2023-01-23T07:41:13.986Z,1031.42
2023-01-23T07:42:13.746Z,1031.40
2023-01-23T07:43:14.630Z,1031.39
2023-01-23T07:44:14.373Z,1031.36
2023-01-23T07:45:13.698Z,1031.38
2023-01-23T07:46:13.883Z,1031.35
2023-01-23T07:47:14.553Z,1031.34
2023-01-23T07:48:13.741Z,1031.39
2023-01-23T07:49:13.629Z,1031.37
2023-01-23T07:50:13.640Z,1031.44
2023-01-23T07:51:13.771Z,1031.45
2023-01-23T07:52:13.579Z,1031.44
2023-01-23T07:53:13.609Z,1031.45
2023-01-23T07:54:13.561Z,1031.44
2023-01-23T07:55:13.555Z,1031.46
2023-01-23T07:56:13.609Z,1031.48
2023-01-23T07:57:13.687Z,1031.52
2023-01-23T07:58:13.535Z,1031.49
2023-01-23T07:59:13.532Z,1031.48
2023-01-23T08:00:13.494Z,1031.49
2023-01-23T08:01:13.466Z,1031.55
2023-01-23T08:02:13.451Z,1031.51
2023-01-23T08:03:14.545Z,1031.51
2023-01-23T08:04:13.613Z,1031.49
2023-01-23T08:05:13.431Z,1031.49
2023-01-23T08:06:13.425Z,1031.51
2023-01-23T08:07:13.402Z,1031.51
2023-01-23T08:08:14.591Z,1031.54
2023-01-23T08:09:13.392Z,1031.56
2023-01-23T08:10:13.444Z,1031.52
2023-01-23T08:11:13.504Z,1031.53
2023-01-23T08:12:13.539Z,1031.53
2023-01-23T08:13:13.339Z,1031.53
2023-01-23T08:14:13.362Z,1031.49
2023-01-23T08:15:13.496Z,1031.48
2023-01-23T08:16:13.840Z,1031.48
2023-01-23T08:17:13.544Z,1031.46
2023-01-23T08:18:13.334Z,1031.50
2023-01-23T08:19:13.233Z,1031.46
2023-01-23T08:20:13.253Z,1031.46
2023-01-23T08:21:14.679Z,1031.46
2023-01-23T08:22:13.453Z,1031.44
2023-01-23T08:23:13.199Z,1031.47
2023-01-23T08:24:14.138Z,1031.43
2023-01-23T08:25:13.380Z,1031.44
2023-01-23T08:26:13.167Z,1031.42
2023-01-23T08:27:13.161Z,1031.46
2023-01-23T08:28:13.211Z,1031.43
2023-01-23T08:29:14.051Z,1031.44
2023-01-23T08:30:14.548Z,1031.41
2023-01-23T08:31:13.256Z,1031.41
2023-01-23T08:32:13.081Z,1031.46
2023-01-23T08:33:13.094Z,1031.42
2023-01-23T08:34:14.138Z,1031.43
2023-01-23T08:35:13.075Z,1031.43
2023-01-23T08:36:13.077Z,1031.40
2023-01-23T08:37:13.041Z,1031.41
2023-01-23T08:38:13.024Z,1031.38
2023-01-23T08:39:13.214Z,1031.42
2023-01-23T08:40:12.956Z,1031.44
2023-01-23T08:41:12.976Z,1031.45
2023-01-23T08:42:13.080Z,1031.45
2023-01-23T08:43:13.259Z,1031.40
2023-01-23T08:44:13.207Z,1031.40
2023-01-23T08:45:12.944Z,1031.47
2023-01-23T08:46:13.022Z,1031.47
2023-01-23T08:47:13.025Z,1031.42
2023-01-23T08:48:12.984Z,1031.44
2023-01-23T08:49:13.222Z,1031.49
2023-01-23T08:50:13.628Z,1031.50
2023-01-23T08:51:14.378Z,1031.50
2023-01-23T08:52:12.937Z,1031.46
2023-01-23T08:53:13.789Z,1031.47
2023-01-23T08:54:12.867Z,1031.46
2023-01-23T08:55:12.833Z,1031.48
2023-01-23T08:56:14.935Z,1031.50
2023-01-23T08:57:13.704Z,1031.51
2023-01-23T08:58:13.876Z,1031.50
2023-01-23T08:59:12.824Z,1031.53
2023-01-23T09:00:13.681Z,1031.57
2023-01-23T09:01:12.716Z,1031.59
2023-01-23T09:02:12.829Z,1031.56
2023-01-23T09:03:12.720Z,1031.61
2023-01-23T09:04:14.132Z,1031.65
2023-01-23T09:05:12.696Z,1031.59
2023-01-23T09:06:12.654Z,1031.58
2023-01-23T09:07:12.664Z,1031.59
2023-01-23T09:08:13.497Z,1031.57
2023-01-23T09:09:12.684Z,1031.61
2023-01-23T09:10:12.611Z,1031.61
2023-01-23T09:11:13.646Z,1031.70
2023-01-23T09:12:12.768Z,1031.67
2023-01-23T09:13:12.741Z,1031.70
2023-01-23T09:14:12.654Z,1031.71
2023-01-23T09:15:12.589Z,1031.75
2023-01-23T09:16:13.037Z,1031.74
2023-01-23T09:17:13.595Z,1031.77
2023-01-23T09:18:12.562Z,1031.82
2023-01-23T09:19:12.500Z,1031.82
2023-01-23T09:20:12.525Z,1031.80
2023-01-23T09:21:12.665Z,1031.87
2023-01-23T09:22:12.421Z,1031.86
2023-01-23T09:23:12.478Z,1031.87
2023-01-23T09:24:12.425Z,1031.88
2023-01-23T09:25:13.361Z,1031.91
2023-01-23T09:26:12.396Z,1031.86
2023-01-23T09:27:12.498Z,1031.92
2023-01-23T09:28:12.494Z,1031.97
2023-01-23T09:29:12.354Z,1031.99
2023-01-23T09:30:12.345Z,1031.94
2023-01-23T09:31:12.424Z,1031.98
2023-01-23T09:32:12.305Z,1031.99
2023-01-23T09:33:12.350Z,1032.04
2023-01-23T09:34:12.562Z,1032.03
2023-01-23T09:35:12.998Z,1032.02
2023-01-23T09:36:12.644Z,1032.08
2023-01-23T09:37:12.737Z,1032.10
2023-01-23T09:38:13.104Z,1032.08
2023-01-23T09:39:12.304Z,1032.11
2023-01-23T09:40:12.273Z,1032.13
2023-01-23T09:41:12.180Z,1032.11
2023-01-23T09:42:12.225Z,1032.13
2023-01-23T09:43:12.231Z,1032.13
2023-01-23T09:44:12.192Z,1032.11
2023-01-23T09:45:13.608Z,1032.11
2023-01-23T09:46:12.735Z,1032.19
2023-01-23T09:47:12.231Z,1032.15
2023-01-23T09:48:12.123Z,1032.19
2023-01-23T09:49:12.094Z,1032.16
2023-01-23T09:50:12.106Z,1032.16
2023-01-23T09:51:13.062Z,1032.22
2023-01-23T09:52:13.290Z,1032.21
2023-01-23T09:53:12.095Z,1032.12
2023-01-23T09:54:12.035Z,1032.17
2023-01-23T09:55:12.036Z,1032.20
2023-01-23T09:56:12.008Z,1032.19
2023-01-23T09:57:12.023Z,1032.19
2023-01-23T09:58:11.972Z,1032.25
2023-01-23T09:59:11.970Z,1032.23
2023-01-23T10:00:11.982Z,1032.27
2023-01-23T10:01:12.030Z,1032.24
2023-01-23T10:02:11.928Z,1032.28
2023-01-23T10:03:12.103Z,1032.29
2023-01-23T10:04:12.143Z,1032.27
2023-01-23T10:05:13.076Z,1032.22
2023-01-23T10:06:12.025Z,1032.25
2023-01-23T10:07:11.880Z,1032.27
2023-01-23T10:08:11.888Z,1032.23
2023-01-23T10:09:11.866Z,1032.27
2023-01-23T10:10:11.873Z,1032.30
2023-01-23T10:11:11.827Z,1032.30
2023-01-23T10:12:11.811Z,1032.26
2023-01-23T10:13:11.853Z,1032.26
2023-01-23T10:14:11.817Z,1032.25
2023-01-23T10:15:11.780Z,1032.30
2023-01-23T10:16:12.534Z,1032.32
2023-01-23T10:17:11.783Z,1032.32
2023-01-23T10:18:11.855Z,1032.31
2023-01-23T10:19:11.729Z,1032.34
2023-01-23T10:20:11.771Z,1032.28
2023-01-23T10:21:11.861Z,1032.27
2023-01-23T10:22:22.280Z,1032.27
2023-01-23T10:23:13.201Z,1032.32
2023-01-23T10:24:12.605Z,1032.32
2023-01-23T10:25:11.691Z,1032.25
2023-01-23T10:26:11.632Z,1032.24
2023-01-23T10:27:11.585Z,1032.25
2023-01-23T10:28:11.702Z,1032.28
2023-01-23T10:29:11.619Z,1032.29
2023-01-23T10:30:11.905Z,1032.28
2023-01-23T10:31:12.613Z,1032.29
2023-01-23T10:32:12.528Z,1032.28
2023-01-23T10:33:11.520Z,1032.27
2023-01-23T10:34:11.526Z,1032.24
2023-01-23T10:35:11.534Z,1032.27
2023-01-23T10:36:12.521Z,1032.32
2023-01-23T10:37:11.681Z,1032.31
2023-01-23T10:38:11.484Z,1032.32
2023-01-23T10:39:11.482Z,1032.30
2023-01-23T10:40:11.596Z,1032.35
2023-01-23T10:41:11.478Z,1032.30
2023-01-23T10:42:11.805Z,1032.31
2023-01-23T10:43:11.436Z,1032.32
2023-01-23T10:44:11.448Z,1032.29
2023-01-23T10:45:12.315Z,1032.32
2023-01-23T10:46:12.324Z,1032.27
2023-01-23T10:47:11.485Z,1032.26
2023-01-23T10:48:16.054Z,1032.28
2023-01-23T10:49:12.425Z,1032.31
2023-01-23T10:50:11.346Z,1032.34
2023-01-23T10:51:12.250Z,1032.33
2023-01-23T10:52:11.512Z,1032.30
2023-01-23T10:53:11.297Z,1032.34
2023-01-23T10:54:13.043Z,1032.30
2023-01-23T10:55:12.507Z,1032.32
2023-01-23T10:56:11.401Z,1032.31
2023-01-23T10:57:11.414Z,1032.27
2023-01-23T10:58:11.222Z,1032.32
2023-01-23T10:59:11.233Z,1032.32
2023-01-23T11:00:11.201Z,1032.33
2023-01-23T11:01:11.192Z,1032.33
2023-01-23T11:02:11.390Z,1032.33
2023-01-23T11:03:11.260Z,1032.33
2023-01-23T11:04:11.121Z,1032.30
2023-01-23T11:05:11.135Z,1032.24
2023-01-23T11:06:11.557Z,1032.27
2023-01-23T11:07:13.834Z,1032.25
2023-01-23T11:08:11.178Z,1032.22
2023-01-23T11:09:11.154Z,1032.23
2023-01-23T11:10:11.119Z,1032.23
2023-01-23T11:11:11.055Z,1032.19
2023-01-23T11:12:11.027Z,1032.23
2023-01-23T11:13:11.112Z,1032.20
2023-01-23T11:14:12.096Z,1032.20
2023-01-23T11:15:11.253Z,1032.18
2023-01-23T11:16:11.272Z,1032.21
2023-01-23T11:17:11.306Z,1032.17
2023-01-23T11:18:11.964Z,1032.16
2023-01-23T11:19:10.963Z,1032.18
2023-01-23T11:20:11.268Z,1032.17
2023-01-23T11:21:10.976Z,1032.14
2023-01-23T11:22:10.953Z,1032.17
2023-01-23T11:23:10.939Z,1032.16
2023-01-23T11:24:10.884Z,1032.19
2023-01-23T11:25:10.854Z,1032.15
2023-01-23T11:26:10.894Z,1032.15
2023-01-23T11:27:10.975Z,1032.17
2023-01-23T11:28:12.276Z,1032.17
2023-01-23T11:29:11.668Z,1032.15
2023-01-23T11:30:10.813Z,1032.11
2023-01-23T11:31:15.230Z,1032.11
2023-01-23T11:32:10.926Z,1032.11
2023-01-23T11:33:10.874Z,1032.16
2023-01-23T11:34:10.847Z,1032.11
2023-01-23T11:35:11.746Z,1032.08
2023-01-23T11:36:10.726Z,1032.11
2023-01-23T11:37:10.914Z,1032.07
2023-01-23T11:38:11.666Z,1032.07
2023-01-23T11:39:12.132Z,1032.05
2023-01-23T11:40:10.694Z,1032.05
2023-01-23T11:41:10.659Z,1032.06
2023-01-23T11:42:10.637Z,1032.09
2023-01-23T11:43:10.640Z,1032.11
2023-01-23T11:44:13.019Z,1032.13
2023-01-23T11:45:11.578Z,1032.11
2023-01-23T11:46:10.755Z,1032.09
2023-01-23T11:47:10.594Z,1032.08
2023-01-23T11:48:11.536Z,1032.07
2023-01-23T11:49:11.795Z,1032.01
2023-01-23T11:50:10.598Z,1031.98
2023-01-23T11:51:10.674Z,1032.00
2023-01-23T11:52:10.624Z,1031.99
2023-01-23T11:53:10.533Z,1032.02
2023-01-23T11:54:12.009Z,1031.98
2023-01-23T11:55:10.543Z,1032.00
2023-01-23T11:56:11.451Z,1031.96
2023-01-23T11:57:10.458Z,1031.99
2023-01-23T11:58:10.597Z,1032.02
2023-01-23T11:59:10.625Z,1031.99
2023-01-23T12:00:10.457Z,1032.02
2023-01-23T12:01:10.690Z,1032.02
2023-01-23T12:02:11.362Z,1031.98
2023-01-23T12:03:11.356Z,1031.96
2023-01-23T12:04:11.418Z,1031.99
2023-01-23T12:05:10.369Z,1031.94